sensor_id;sensor_type;location;lat;lon;timestamp;P1;durP1;ratioP1;P2;durP2;ratioP2
50745;SDS011;36711;51.972;21.204;2022-10-16T00:01:45;23.10;;;12.50;;
50745;SDS011;36711;51.972;21.204;2022-10-16T00:04:14;23.10;;;12.20;;
50745;SDS011;36711;51.972;21.204;2022-10-16T00:06:43;21.10;;;12.60;;
50745;SDS011;36711;51.972;21.204;2022-10-16T00:09:12;21.90;;;12.60;;
50745;SDS011;36711;51.972;21.204;2022-10-16T00:11:40;17.00;;;10.70;;
50745;SDS011;36711;51.972;21.204;2022-10-16T00:14:11;16.30;;;9.50;;
50745;SDS011;36711;51.972;21.204;2022-10-16T00:16:41;24.40;;;11.10;;
50745;SDS011;36711;51.972;21.204;2022-10-16T00:19:10;21.30;;;10.60;;
50745;SDS011;36711;51.972;21.204;2022-10-16T00:21:40;19.80;;;11.20;;
50745;SDS011;36711;51.972;21.204;2022-10-16T00:24:09;23.10;;;12.30;;
50745;SDS011;36711;51.972;21.204;2022-10-16T00:26:39;18.10;;;11.50;;
50745;SDS011;36711;51.972;21.204;2022-10-16T00:29:08;21.10;;;12.40;;
50745;SDS011;36711;51.972;21.204;2022-10-16T00:31:36;19.00;;;12.00;;
50745;SDS011;36711;51.972;21.204;2022-10-16T00:34:05;20.80;;;11.40;;
50745;SDS011;36711;51.972;21.204;2022-10-16T00:36:34;19.40;;;10.60;;
50745;SDS011;36711;51.972;21.204;2022-10-16T00:39:02;22.80;;;11.20;;
50745;SDS011;36711;51.972;21.204;2022-10-16T00:41:31;17.30;;;11.10;;
50745;SDS011;36711;51.972;21.204;2022-10-16T00:44:02;18.90;;;11.80;;
50745;SDS011;36711;51.972;21.204;2022-10-16T00:46:35;20.60;;;12.00;;
50745;SDS011;36711;51.972;21.204;2022-10-16T00:49:09;22.10;;;11.90;;
50745;SDS011;36711;51.972;21.204;2022-10-16T00:51:40;24.10;;;11.40;;
50745;SDS011;36711;51.972;21.204;2022-10-16T00:54:26;20.20;;;10.20;;
50745;SDS011;36711;51.972;21.204;2022-10-16T00:56:55;19.60;;;10.80;;
50745;SDS011;36711;51.972;21.204;2022-10-16T00:59:26;21.70;;;12.50;;
50745;SDS011;36711;51.972;21.204;2022-10-16T01:01:55;21.80;;;12.50;;
50745;SDS011;36711;51.972;21.204;2022-10-16T01:04:24;22.50;;;13.10;;
50745;SDS011;36711;51.972;21.204;2022-10-16T01:14:23;19.70;;;10.60;;
50745;SDS011;36711;51.972;21.204;2022-10-16T01:17:00;20.10;;;12.10;;
50745;SDS011;36711;51.972;21.204;2022-10-16T01:21:58;23.30;;;12.80;;
50745;SDS011;36711;51.972;21.204;2022-10-16T01:24:33;18.20;;;12.00;;
50745;SDS011;36711;51.972;21.204;2022-10-16T01:37:45;25.90;;;12.00;;
50745;SDS011;36711;51.972;21.204;2022-10-16T01:40:16;20.00;;;12.30;;
50745;SDS011;36711;51.972;21.204;2022-10-16T01:42:50;20.50;;;12.10;;
50745;SDS011;36711;51.972;21.204;2022-10-16T01:45:20;20.40;;;11.80;;
50745;SDS011;36711;51.972;21.204;2022-10-16T01:47:49;21.10;;;12.30;;
50745;SDS011;36711;51.972;21.204;2022-10-16T01:50:20;18.80;;;11.00;;
50745;SDS011;36711;51.972;21.204;2022-10-16T01:52:49;16.50;;;9.50;;
50745;SDS011;36711;51.972;21.204;2022-10-16T01:55:21;20.40;;;11.20;;
50745;SDS011;36711;51.972;21.204;2022-10-16T01:57:50;19.30;;;11.70;;
50745;SDS011;36711;51.972;21.204;2022-10-16T02:00:20;20.70;;;12.60;;
50745;SDS011;36711;51.972;21.204;2022-10-16T02:02:50;20.10;;;12.20;;
50745;SDS011;36711;51.972;21.204;2022-10-16T02:07:49;17.90;;;10.70;;
50745;SDS011;36711;51.972;21.204;2022-10-16T02:10:18;17.50;;;10.70;;
50745;SDS011;36711;51.972;21.204;2022-10-16T02:12:49;18.00;;;10.90;;
50745;SDS011;36711;51.972;21.204;2022-10-16T02:15:19;23.00;;;11.70;;
50745;SDS011;36711;51.972;21.204;2022-10-16T02:17:47;21.20;;;12.20;;
50745;SDS011;36711;51.972;21.204;2022-10-16T02:20:16;22.80;;;13.20;;
50745;SDS011;36711;51.972;21.204;2022-10-16T02:22:45;20.60;;;12.60;;
50745;SDS011;36711;51.972;21.204;2022-10-16T02:27:49;16.40;;;10.20;;
50745;SDS011;36711;51.972;21.204;2022-10-16T02:32:50;21.90;;;10.10;;
50745;SDS011;36711;51.972;21.204;2022-10-16T02:35:20;18.50;;;10.70;;
50745;SDS011;36711;51.972;21.204;2022-10-16T02:37:49;21.30;;;12.20;;
50745;SDS011;36711;51.972;21.204;2022-10-16T02:40:19;20.60;;;11.40;;
50745;SDS011;36711;51.972;21.204;2022-10-16T02:42:53;19.70;;;11.80;;
50745;SDS011;36711;51.972;21.204;2022-10-16T02:45:22;16.30;;;10.20;;
50745;SDS011;36711;51.972;21.204;2022-10-16T02:47:51;18.80;;;10.20;;
50745;SDS011;36711;51.972;21.204;2022-10-16T02:50:20;19.40;;;10.50;;
50745;SDS011;36711;51.972;21.204;2022-10-16T02:52:48;18.80;;;10.80;;
50745;SDS011;36711;51.972;21.204;2022-10-16T02:55:17;19.70;;;11.50;;
50745;SDS011;36711;51.972;21.204;2022-10-16T02:57:46;20.90;;;12.10;;
50745;SDS011;36711;51.972;21.204;2022-10-16T03:00:15;18.10;;;12.10;;
50745;SDS011;36711;51.972;21.204;2022-10-16T03:02:44;18.80;;;10.40;;
50745;SDS011;36711;51.972;21.204;2022-10-16T03:05:13;19.50;;;9.90;;
50745;SDS011;36711;51.972;21.204;2022-10-16T03:07:41;15.10;;;10.40;;
50745;SDS011;36711;51.972;21.204;2022-10-16T03:10:10;17.50;;;10.20;;
50745;SDS011;36711;51.972;21.204;2022-10-16T03:12:39;17.20;;;11.50;;
50745;SDS011;36711;51.972;21.204;2022-10-16T03:15:07;16.90;;;11.30;;
50745;SDS011;36711;51.972;21.204;2022-10-16T03:17:36;17.80;;;11.40;;
50745;SDS011;36711;51.972;21.204;2022-10-16T03:20:05;18.60;;;11.90;;
50745;SDS011;36711;51.972;21.204;2022-10-16T03:22:34;17.90;;;10.90;;
50745;SDS011;36711;51.972;21.204;2022-10-16T03:25:03;14.90;;;10.00;;
50745;SDS011;36711;51.972;21.204;2022-10-16T03:27:32;18.00;;;9.50;;
50745;SDS011;36711;51.972;21.204;2022-10-16T03:30:00;17.00;;;9.90;;
50745;SDS011;36711;51.972;21.204;2022-10-16T03:32:29;19.00;;;9.90;;
50745;SDS011;36711;51.972;21.204;2022-10-16T03:34:58;21.70;;;11.50;;
50745;SDS011;36711;51.972;21.204;2022-10-16T03:37:26;26.00;;;11.40;;
50745;SDS011;36711;51.972;21.204;2022-10-16T03:39:56;21.20;;;11.20;;
50745;SDS011;36711;51.972;21.204;2022-10-16T03:42:24;17.80;;;10.60;;
50745;SDS011;36711;51.972;21.204;2022-10-16T03:44:53;13.70;;;9.40;;
50745;SDS011;36711;51.972;21.204;2022-10-16T03:47:22;21.00;;;9.50;;
50745;SDS011;36711;51.972;21.204;2022-10-16T03:49:52;16.10;;;10.20;;
50745;SDS011;36711;51.972;21.204;2022-10-16T03:52:21;14.30;;;10.00;;
50745;SDS011;36711;51.972;21.204;2022-10-16T03:54:50;19.40;;;10.90;;
50745;SDS011;36711;51.972;21.204;2022-10-16T03:57:18;20.40;;;10.50;;
50745;SDS011;36711;51.972;21.204;2022-10-16T03:59:48;19.60;;;11.20;;
50745;SDS011;36711;51.972;21.204;2022-10-16T04:02:17;17.20;;;10.20;;
50745;SDS011;36711;51.972;21.204;2022-10-16T04:04:46;17.10;;;9.50;;
50745;SDS011;36711;51.972;21.204;2022-10-16T04:07:15;15.70;;;9.40;;
50745;SDS011;36711;51.972;21.204;2022-10-16T04:09:43;15.40;;;10.20;;
50745;SDS011;36711;51.972;21.204;2022-10-16T04:12:12;16.50;;;10.60;;
50745;SDS011;36711;51.972;21.204;2022-10-16T04:14:41;22.10;;;11.20;;
50745;SDS011;36711;51.972;21.204;2022-10-16T04:17:09;19.80;;;11.00;;
50745;SDS011;36711;51.972;21.204;2022-10-16T04:19:38;16.00;;;10.40;;
50745;SDS011;36711;51.972;21.204;2022-10-16T04:22:07;11.80;;;7.40;;
50745;SDS011;36711;51.972;21.204;2022-10-16T04:24:35;18.50;;;9.90;;
50745;SDS011;36711;51.972;21.204;2022-10-16T04:27:04;13.40;;;9.10;;
50745;SDS011;36711;51.972;21.204;2022-10-16T04:29:33;15.60;;;9.60;;
50745;SDS011;36711;51.972;21.204;2022-10-16T04:32:01;18.80;;;11.10;;
50745;SDS011;36711;51.972;21.204;2022-10-16T04:34:30;15.80;;;10.40;;
50745;SDS011;36711;51.972;21.204;2022-10-16T04:36:59;20.20;;;11.00;;
50745;SDS011;36711;51.972;21.204;2022-10-16T04:39:27;19.00;;;9.90;;
50745;SDS011;36711;51.972;21.204;2022-10-16T04:41:56;14.50;;;8.90;;
50745;SDS011;36711;51.972;21.204;2022-10-16T04:44:25;16.20;;;9.40;;
50745;SDS011;36711;51.972;21.204;2022-10-16T04:46:53;16.20;;;9.40;;
50745;SDS011;36711;51.972;21.204;2022-10-16T04:49:22;17.40;;;10.20;;
50745;SDS011;36711;51.972;21.204;2022-10-16T04:51:51;16.50;;;10.70;;
50745;SDS011;36711;51.972;21.204;2022-10-16T04:54:19;15.90;;;10.60;;
50745;SDS011;36711;51.972;21.204;2022-10-16T04:56:48;17.20;;;10.80;;
50745;SDS011;36711;51.972;21.204;2022-10-16T04:59:18;19.60;;;10.30;;
50745;SDS011;36711;51.972;21.204;2022-10-16T05:01:47;12.90;;;9.30;;
50745;SDS011;36711;51.972;21.204;2022-10-16T05:04:16;15.10;;;9.30;;
50745;SDS011;36711;51.972;21.204;2022-10-16T05:06:45;10.90;;;6.80;;
50745;SDS011;36711;51.972;21.204;2022-10-16T05:09:14;18.90;;;10.80;;
50745;SDS011;36711;51.972;21.204;2022-10-16T05:11:42;20.20;;;11.10;;
50745;SDS011;36711;51.972;21.204;2022-10-16T05:14:11;18.80;;;10.90;;
50745;SDS011;36711;51.972;21.204;2022-10-16T05:16:40;16.40;;;10.20;;
50745;SDS011;36711;51.972;21.204;2022-10-16T05:19:09;18.20;;;10.10;;
50745;SDS011;36711;51.972;21.204;2022-10-16T05:21:55;15.30;;;9.20;;
50745;SDS011;36711;51.972;21.204;2022-10-16T05:24:24;19.10;;;9.80;;
50745;SDS011;36711;51.972;21.204;2022-10-16T05:26:53;17.10;;;10.10;;
50745;SDS011;36711;51.972;21.204;2022-10-16T05:29:22;19.40;;;11.00;;
50745;SDS011;36711;51.972;21.204;2022-10-16T05:31:51;18.10;;;11.20;;
50745;SDS011;36711;51.972;21.204;2022-10-16T05:34:20;21.00;;;10.00;;
50745;SDS011;36711;51.972;21.204;2022-10-16T05:36:49;15.10;;;9.40;;
50745;SDS011;36711;51.972;21.204;2022-10-16T05:39:18;13.30;;;8.70;;
50745;SDS011;36711;51.972;21.204;2022-10-16T05:41:49;19.20;;;9.00;;
50745;SDS011;36711;51.972;21.204;2022-10-16T05:44:18;18.10;;;10.30;;
50745;SDS011;36711;51.972;21.204;2022-10-16T05:46:46;21.40;;;10.50;;
50745;SDS011;36711;51.972;21.204;2022-10-16T05:49:15;15.00;;;10.20;;
50745;SDS011;36711;51.972;21.204;2022-10-16T05:51:44;15.30;;;10.40;;
50745;SDS011;36711;51.972;21.204;2022-10-16T05:54:13;21.10;;;9.70;;
50745;SDS011;36711;51.972;21.204;2022-10-16T05:56:42;13.50;;;9.10;;
50745;SDS011;36711;51.972;21.204;2022-10-16T05:59:10;15.90;;;8.80;;
50745;SDS011;36711;51.972;21.204;2022-10-16T06:01:39;16.10;;;9.30;;
50745;SDS011;36711;51.972;21.204;2022-10-16T06:04:08;15.50;;;9.40;;
50745;SDS011;36711;51.972;21.204;2022-10-16T06:06:38;17.00;;;9.60;;
50745;SDS011;36711;51.972;21.204;2022-10-16T06:09:07;16.60;;;9.90;;
50745;SDS011;36711;51.972;21.204;2022-10-16T06:11:36;15.10;;;10.40;;
50745;SDS011;36711;51.972;21.204;2022-10-16T06:14:04;18.40;;;9.30;;
50745;SDS011;36711;51.972;21.204;2022-10-16T06:16:35;10.50;;;7.80;;
50745;SDS011;36711;51.972;21.204;2022-10-16T06:19:04;12.50;;;8.70;;
50745;SDS011;36711;51.972;21.204;2022-10-16T06:21:37;11.90;;;8.80;;
50745;SDS011;36711;51.972;21.204;2022-10-16T06:24:06;15.40;;;9.40;;
50745;SDS011;36711;51.972;21.204;2022-10-16T06:26:35;16.50;;;9.90;;
50745;SDS011;36711;51.972;21.204;2022-10-16T06:29:04;14.70;;;9.60;;
50745;SDS011;36711;51.972;21.204;2022-10-16T06:31:32;18.60;;;9.30;;
50745;SDS011;36711;51.972;21.204;2022-10-16T06:34:02;13.10;;;8.10;;
50745;SDS011;36711;51.972;21.204;2022-10-16T06:36:33;12.80;;;8.80;;
50745;SDS011;36711;51.972;21.204;2022-10-16T06:39:02;18.00;;;9.10;;
50745;SDS011;36711;51.972;21.204;2022-10-16T06:41:31;14.40;;;9.50;;
50745;SDS011;36711;51.972;21.204;2022-10-16T06:44:00;12.50;;;9.30;;
50745;SDS011;36711;51.972;21.204;2022-10-16T06:46:28;12.50;;;8.90;;
50745;SDS011;36711;51.972;21.204;2022-10-16T06:48:57;13.00;;;9.70;;
50745;SDS011;36711;51.972;21.204;2022-10-16T06:51:26;12.10;;;7.70;;
50745;SDS011;36711;51.972;21.204;2022-10-16T06:53:55;12.10;;;7.70;;
50745;SDS011;36711;51.972;21.204;2022-10-16T06:56:33;16.70;;;8.00;;
50745;SDS011;36711;51.972;21.204;2022-10-16T06:59:02;13.50;;;8.70;;
50745;SDS011;36711;51.972;21.204;2022-10-16T07:01:31;15.70;;;8.90;;
50745;SDS011;36711;51.972;21.204;2022-10-16T07:04:00;13.30;;;8.80;;
50745;SDS011;36711;51.972;21.204;2022-10-16T07:06:31;11.20;;;8.10;;
50745;SDS011;36711;51.972;21.204;2022-10-16T07:09:00;13.80;;;8.40;;
50745;SDS011;36711;51.972;21.204;2022-10-16T07:11:29;12.20;;;8.60;;
50745;SDS011;36711;51.972;21.204;2022-10-16T07:13:58;14.00;;;8.10;;
50745;SDS011;36711;51.972;21.204;2022-10-16T07:16:27;15.20;;;9.10;;
50745;SDS011;36711;51.972;21.204;2022-10-16T07:19:00;11.90;;;7.20;;
50745;SDS011;36711;51.972;21.204;2022-10-16T07:21:32;11.60;;;7.10;;
50745;SDS011;36711;51.972;21.204;2022-10-16T07:24:05;13.50;;;7.00;;
50745;SDS011;36711;51.972;21.204;2022-10-16T07:26:35;10.20;;;7.90;;
50745;SDS011;36711;51.972;21.204;2022-10-16T07:29:11;13.20;;;8.10;;
50745;SDS011;36711;51.972;21.204;2022-10-16T07:31:41;12.60;;;7.70;;
50745;SDS011;36711;51.972;21.204;2022-10-16T07:34:11;13.50;;;7.50;;
50745;SDS011;36711;51.972;21.204;2022-10-16T07:36:40;14.30;;;7.60;;
50745;SDS011;36711;51.972;21.204;2022-10-16T07:39:10;13.80;;;7.70;;
50745;SDS011;36711;51.972;21.204;2022-10-16T07:41:38;9.10;;;7.70;;
50745;SDS011;36711;51.972;21.204;2022-10-16T07:44:07;19.30;;;7.60;;
50745;SDS011;36711;51.972;21.204;2022-10-16T07:46:36;16.60;;;7.70;;
50745;SDS011;36711;51.972;21.204;2022-10-16T07:49:05;15.40;;;7.60;;
50745;SDS011;36711;51.972;21.204;2022-10-16T07:51:33;17.50;;;7.40;;
50745;SDS011;36711;51.972;21.204;2022-10-16T07:54:02;11.30;;;7.60;;
50745;SDS011;36711;51.972;21.204;2022-10-16T07:56:31;14.10;;;7.90;;
50745;SDS011;36711;51.972;21.204;2022-10-16T07:59:01;10.90;;;6.60;;
50745;SDS011;36711;51.972;21.204;2022-10-16T08:01:29;14.10;;;7.20;;
50745;SDS011;36711;51.972;21.204;2022-10-16T08:03:59;11.70;;;8.00;;
50745;SDS011;36711;51.972;21.204;2022-10-16T08:06:28;11.90;;;7.60;;
50745;SDS011;36711;51.972;21.204;2022-10-16T08:08:56;11.30;;;7.30;;
50745;SDS011;36711;51.972;21.204;2022-10-16T08:11:29;10.80;;;7.70;;
50745;SDS011;36711;51.972;21.204;2022-10-16T08:13:58;11.00;;;6.70;;
50745;SDS011;36711;51.972;21.204;2022-10-16T08:16:27;13.00;;;6.90;;
50745;SDS011;36711;51.972;21.204;2022-10-16T08:18:55;10.80;;;6.70;;
50745;SDS011;36711;51.972;21.204;2022-10-16T08:21:25;8.90;;;5.90;;
50745;SDS011;36711;51.972;21.204;2022-10-16T08:23:54;12.20;;;6.80;;
50745;SDS011;36711;51.972;21.204;2022-10-16T08:26:26;8.20;;;6.00;;
50745;SDS011;36711;51.972;21.204;2022-10-16T08:29:10;11.20;;;6.30;;
50745;SDS011;36711;51.972;21.204;2022-10-16T08:31:42;9.20;;;5.60;;
50745;SDS011;36711;51.972;21.204;2022-10-16T08:34:12;9.10;;;5.20;;
50745;SDS011;36711;51.972;21.204;2022-10-16T08:36:41;6.80;;;5.60;;
50745;SDS011;36711;51.972;21.204;2022-10-16T08:39:10;10.00;;;5.70;;
50745;SDS011;36711;51.972;21.204;2022-10-16T08:44:34;7.10;;;4.80;;
50745;SDS011;36711;51.972;21.204;2022-10-16T08:47:21;10.00;;;4.80;;
50745;SDS011;36711;51.972;21.204;2022-10-16T08:49:55;7.70;;;4.60;;
50745;SDS011;36711;51.972;21.204;2022-10-16T08:52:25;6.60;;;4.30;;
50745;SDS011;36711;51.972;21.204;2022-10-16T08:54:56;7.20;;;5.30;;
50745;SDS011;36711;51.972;21.204;2022-10-16T08:57:25;6.90;;;4.80;;
50745;SDS011;36711;51.972;21.204;2022-10-16T08:59:57;8.20;;;4.50;;
50745;SDS011;36711;51.972;21.204;2022-10-16T09:07:36;7.60;;;4.90;;
50745;SDS011;36711;51.972;21.204;2022-10-16T09:12:51;6.00;;;4.80;;
50745;SDS011;36711;51.972;21.204;2022-10-16T09:15:32;7.10;;;4.70;;
50745;SDS011;36711;51.972;21.204;2022-10-16T09:20:38;6.20;;;4.90;;
50745;SDS011;36711;51.972;21.204;2022-10-16T09:23:15;7.80;;;5.10;;
50745;SDS011;36711;51.972;21.204;2022-10-16T09:25:50;7.90;;;5.30;;
50745;SDS011;36711;51.972;21.204;2022-10-16T09:28:20;11.60;;;5.80;;
50745;SDS011;36711;51.972;21.204;2022-10-16T09:30:49;7.40;;;5.50;;
50745;SDS011;36711;51.972;21.204;2022-10-16T09:33:19;9.10;;;5.60;;
50745;SDS011;36711;51.972;21.204;2022-10-16T09:35:50;10.20;;;5.70;;
50745;SDS011;36711;51.972;21.204;2022-10-16T09:38:29;10.60;;;5.40;;
50745;SDS011;36711;51.972;21.204;2022-10-16T09:41:20;9.40;;;5.90;;
50745;SDS011;36711;51.972;21.204;2022-10-16T09:43:54;9.50;;;5.80;;
50745;SDS011;36711;51.972;21.204;2022-10-16T09:48:54;14.20;;;6.00;;
50745;SDS011;36711;51.972;21.204;2022-10-16T09:51:27;7.60;;;5.60;;
50745;SDS011;36711;51.972;21.204;2022-10-16T09:54:00;7.20;;;5.40;;
50745;SDS011;36711;51.972;21.204;2022-10-16T09:56:30;9.20;;;5.30;;
50745;SDS011;36711;51.972;21.204;2022-10-16T10:01:40;10.00;;;5.20;;
50745;SDS011;36711;51.972;21.204;2022-10-16T10:04:09;8.30;;;4.70;;
50745;SDS011;36711;51.972;21.204;2022-10-16T10:09:20;5.90;;;4.60;;
50745;SDS011;36711;51.972;21.204;2022-10-16T10:12:33;5.10;;;4.30;;
50745;SDS011;36711;51.972;21.204;2022-10-16T10:17:12;8.40;;;4.20;;
50745;SDS011;36711;51.972;21.204;2022-10-16T10:24:53;5.30;;;4.50;;
50745;SDS011;36711;51.972;21.204;2022-10-16T10:27:25;5.00;;;4.40;;
50745;SDS011;36711;51.972;21.204;2022-10-16T10:32:30;6.50;;;4.10;;
50745;SDS011;36711;51.972;21.204;2022-10-16T10:37:59;7.10;;;4.10;;
50745;SDS011;36711;51.972;21.204;2022-10-16T10:40:27;9.30;;;3.90;;
50745;SDS011;36711;51.972;21.204;2022-10-16T10:45:28;8.80;;;3.60;;
50745;SDS011;36711;51.972;21.204;2022-10-16T10:50:53;6.40;;;3.50;;
50745;SDS011;36711;51.972;21.204;2022-10-16T10:53:35;4.30;;;3.60;;
50745;SDS011;36711;51.972;21.204;2022-10-16T11:01:08;6.50;;;3.30;;
50745;SDS011;36711;51.972;21.204;2022-10-16T11:04:00;10.10;;;4.30;;
50745;SDS011;36711;51.972;21.204;2022-10-16T11:06:36;3.90;;;3.50;;
50745;SDS011;36711;51.972;21.204;2022-10-16T11:14:25;6.70;;;4.30;;
50745;SDS011;36711;51.972;21.204;2022-10-16T11:19:37;5.30;;;4.10;;
50745;SDS011;36711;51.972;21.204;2022-10-16T11:24:53;7.70;;;3.90;;
50745;SDS011;36711;51.972;21.204;2022-10-16T11:27:29;7.50;;;3.80;;
50745;SDS011;36711;51.972;21.204;2022-10-16T11:30:00;9.70;;;4.40;;
50745;SDS011;36711;51.972;21.204;2022-10-16T11:32:53;9.90;;;4.50;;
50745;SDS011;36711;51.972;21.204;2022-10-16T11:35:19;5.30;;;3.90;;
50745;SDS011;36711;51.972;21.204;2022-10-16T11:37:50;7.20;;;4.60;;
50745;SDS011;36711;51.972;21.204;2022-10-16T11:40:31;10.50;;;4.80;;
50745;SDS011;36711;51.972;21.204;2022-10-16T11:43:17;7.90;;;4.50;;
50745;SDS011;36711;51.972;21.204;2022-10-16T11:45:51;5.30;;;4.00;;
50745;SDS011;36711;51.972;21.204;2022-10-16T11:50:53;5.70;;;4.50;;
50745;SDS011;36711;51.972;21.204;2022-10-16T11:56:04;7.50;;;4.00;;
50745;SDS011;36711;51.972;21.204;2022-10-16T11:58:50;5.50;;;3.60;;
50745;SDS011;36711;51.972;21.204;2022-10-16T12:06:44;6.50;;;3.90;;
50745;SDS011;36711;51.972;21.204;2022-10-16T12:09:20;8.50;;;4.00;;
50745;SDS011;36711;51.972;21.204;2022-10-16T12:11:50;7.10;;;4.00;;
50745;SDS011;36711;51.972;21.204;2022-10-16T12:14:21;7.10;;;3.90;;
50745;SDS011;36711;51.972;21.204;2022-10-16T12:19:19;6.60;;;4.10;;
50745;SDS011;36711;51.972;21.204;2022-10-16T12:21:48;7.50;;;4.00;;
50745;SDS011;36711;51.972;21.204;2022-10-16T12:24:30;5.30;;;3.60;;
50745;SDS011;36711;51.972;21.204;2022-10-16T12:27:00;6.70;;;4.20;;
50745;SDS011;36711;51.972;21.204;2022-10-16T12:29:33;6.00;;;3.80;;
50745;SDS011;36711;51.972;21.204;2022-10-16T12:32:24;4.80;;;3.50;;
50745;SDS011;36711;51.972;21.204;2022-10-16T12:35:22;6.20;;;3.70;;
50745;SDS011;36711;51.972;21.204;2022-10-16T12:37:52;4.90;;;3.90;;
50745;SDS011;36711;51.972;21.204;2022-10-16T12:42:53;6.20;;;3.80;;
50745;SDS011;36711;51.972;21.204;2022-10-16T12:45:29;7.50;;;4.00;;
50745;SDS011;36711;51.972;21.204;2022-10-16T12:48:00;6.30;;;4.10;;
50745;SDS011;36711;51.972;21.204;2022-10-16T12:53:02;5.10;;;3.90;;
50745;SDS011;36711;51.972;21.204;2022-10-16T12:55:34;4.60;;;3.80;;
50745;SDS011;36711;51.972;21.204;2022-10-16T13:00:45;5.00;;;4.30;;
50745;SDS011;36711;51.972;21.204;2022-10-16T13:11:08;7.00;;;4.50;;
50745;SDS011;36711;51.972;21.204;2022-10-16T13:13:44;4.20;;;3.80;;
50745;SDS011;36711;51.972;21.204;2022-10-16T13:16:20;10.00;;;4.50;;
50745;SDS011;36711;51.972;21.204;2022-10-16T13:19:00;7.30;;;4.40;;
50745;SDS011;36711;51.972;21.204;2022-10-16T13:21:42;5.30;;;4.00;;
50745;SDS011;36711;51.972;21.204;2022-10-16T13:24:16;8.50;;;4.00;;
50745;SDS011;36711;51.972;21.204;2022-10-16T13:29:23;10.30;;;4.30;;
50745;SDS011;36711;51.972;21.204;2022-10-16T13:31:52;7.40;;;4.30;;
50745;SDS011;36711;51.972;21.204;2022-10-16T13:34:21;7.60;;;4.40;;
50745;SDS011;36711;51.972;21.204;2022-10-16T13:36:51;6.90;;;4.30;;
50745;SDS011;36711;51.972;21.204;2022-10-16T13:39:25;6.80;;;4.20;;
50745;SDS011;36711;51.972;21.204;2022-10-16T13:41:58;6.90;;;4.30;;
50745;SDS011;36711;51.972;21.204;2022-10-16T13:44:45;7.40;;;4.30;;
50745;SDS011;36711;51.972;21.204;2022-10-16T13:49:58;7.50;;;4.40;;
50745;SDS011;36711;51.972;21.204;2022-10-16T13:52:26;7.50;;;4.50;;
50745;SDS011;36711;51.972;21.204;2022-10-16T13:54:56;5.70;;;4.60;;
50745;SDS011;36711;51.972;21.204;2022-10-16T13:57:29;5.20;;;4.30;;
50745;SDS011;36711;51.972;21.204;2022-10-16T13:59:58;5.20;;;4.60;;
50745;SDS011;36711;51.972;21.204;2022-10-16T14:02:29;7.70;;;4.80;;
50745;SDS011;36711;51.972;21.204;2022-10-16T14:04:58;7.40;;;4.90;;
50745;SDS011;36711;51.972;21.204;2022-10-16T14:07:31;7.00;;;4.50;;
50745;SDS011;36711;51.972;21.204;2022-10-16T14:10:01;5.70;;;4.20;;
50745;SDS011;36711;51.972;21.204;2022-10-16T14:12:30;5.30;;;4.40;;
50745;SDS011;36711;51.972;21.204;2022-10-16T14:15:00;6.70;;;4.60;;
50745;SDS011;36711;51.972;21.204;2022-10-16T14:17:30;6.80;;;4.80;;
50745;SDS011;36711;51.972;21.204;2022-10-16T14:20:00;13.30;;;4.70;;
50745;SDS011;36711;51.972;21.204;2022-10-16T14:22:36;6.40;;;4.90;;
50745;SDS011;36711;51.972;21.204;2022-10-16T14:25:20;8.30;;;4.80;;
50745;SDS011;36711;51.972;21.204;2022-10-16T14:33:04;6.50;;;4.70;;
50745;SDS011;36711;51.972;21.204;2022-10-16T14:35:34;10.60;;;5.00;;
50745;SDS011;36711;51.972;21.204;2022-10-16T14:38:04;6.50;;;4.90;;
50745;SDS011;36711;51.972;21.204;2022-10-16T14:40:35;10.90;;;5.30;;
50745;SDS011;36711;51.972;21.204;2022-10-16T14:43:04;7.60;;;4.80;;
50745;SDS011;36711;51.972;21.204;2022-10-16T14:45:33;5.80;;;4.30;;
50745;SDS011;36711;51.972;21.204;2022-10-16T14:48:04;7.00;;;4.90;;
50745;SDS011;36711;51.972;21.204;2022-10-16T14:50:34;7.30;;;5.40;;
50745;SDS011;36711;51.972;21.204;2022-10-16T14:53:07;10.10;;;4.80;;
50745;SDS011;36711;51.972;21.204;2022-10-16T14:55:37;7.80;;;4.70;;
50745;SDS011;36711;51.972;21.204;2022-10-16T14:58:05;8.00;;;5.00;;
50745;SDS011;36711;51.972;21.204;2022-10-16T15:00:34;14.00;;;5.70;;
50745;SDS011;36711;51.972;21.204;2022-10-16T15:03:03;13.30;;;5.40;;
50745;SDS011;36711;51.972;21.204;2022-10-16T15:05:32;9.30;;;4.90;;
50745;SDS011;36711;51.972;21.204;2022-10-16T15:08:01;11.50;;;5.00;;
50745;SDS011;36711;51.972;21.204;2022-10-16T15:10:29;10.60;;;5.10;;
50745;SDS011;36711;51.972;21.204;2022-10-16T15:12:59;7.20;;;4.80;;
50745;SDS011;36711;51.972;21.204;2022-10-16T15:15:33;8.90;;;5.10;;
50745;SDS011;36711;51.972;21.204;2022-10-16T15:18:02;6.70;;;5.10;;
50745;SDS011;36711;51.972;21.204;2022-10-16T15:20:33;7.40;;;5.40;;
50745;SDS011;36711;51.972;21.204;2022-10-16T15:23:03;8.10;;;5.00;;
50745;SDS011;36711;51.972;21.204;2022-10-16T15:25:41;8.00;;;5.80;;
50745;SDS011;36711;51.972;21.204;2022-10-16T15:28:10;9.40;;;5.00;;
50745;SDS011;36711;51.972;21.204;2022-10-16T15:30:39;9.20;;;4.70;;
50745;SDS011;36711;51.972;21.204;2022-10-16T15:33:11;11.00;;;4.60;;
50745;SDS011;36711;51.972;21.204;2022-10-16T15:35:40;10.30;;;4.60;;
50745;SDS011;36711;51.972;21.204;2022-10-16T15:38:11;11.00;;;5.00;;
50745;SDS011;36711;51.972;21.204;2022-10-16T15:40:40;11.40;;;5.30;;
50745;SDS011;36711;51.972;21.204;2022-10-16T15:43:09;16.00;;;5.70;;
50745;SDS011;36711;51.972;21.204;2022-10-16T15:45:39;6.80;;;5.20;;
50745;SDS011;36711;51.972;21.204;2022-10-16T15:48:11;10.60;;;5.50;;
50745;SDS011;36711;51.972;21.204;2022-10-16T15:50:41;10.50;;;5.60;;
50745;SDS011;36711;51.972;21.204;2022-10-16T15:53:11;11.70;;;4.80;;
50745;SDS011;36711;51.972;21.204;2022-10-16T15:55:40;7.90;;;4.20;;
50745;SDS011;36711;51.972;21.204;2022-10-16T15:58:09;9.00;;;5.00;;
50745;SDS011;36711;51.972;21.204;2022-10-16T16:00:37;8.80;;;4.60;;
50745;SDS011;36711;51.972;21.204;2022-10-16T16:03:06;10.20;;;5.70;;
50745;SDS011;36711;51.972;21.204;2022-10-16T16:05:37;11.60;;;5.60;;
50745;SDS011;36711;51.972;21.204;2022-10-16T16:08:11;13.10;;;5.80;;
50745;SDS011;36711;51.972;21.204;2022-10-16T16:10:39;15.30;;;6.00;;
50745;SDS011;36711;51.972;21.204;2022-10-16T16:13:08;12.00;;;5.70;;
50745;SDS011;36711;51.972;21.204;2022-10-16T16:15:40;9.00;;;5.20;;
50745;SDS011;36711;51.972;21.204;2022-10-16T16:18:09;15.20;;;6.00;;
50745;SDS011;36711;51.972;21.204;2022-10-16T16:20:38;7.20;;;5.50;;
50745;SDS011;36711;51.972;21.204;2022-10-16T16:23:07;9.40;;;5.80;;
50745;SDS011;36711;51.972;21.204;2022-10-16T16:25:35;10.00;;;5.80;;
50745;SDS011;36711;51.972;21.204;2022-10-16T16:28:05;13.70;;;6.40;;
50745;SDS011;36711;51.972;21.204;2022-10-16T16:30:35;9.80;;;6.50;;
50745;SDS011;36711;51.972;21.204;2022-10-16T16:33:04;12.40;;;7.70;;
50745;SDS011;36711;51.972;21.204;2022-10-16T16:35:32;12.70;;;6.40;;
50745;SDS011;36711;51.972;21.204;2022-10-16T16:38:01;9.30;;;6.40;;
50745;SDS011;36711;51.972;21.204;2022-10-16T16:40:30;10.60;;;6.60;;
50745;SDS011;36711;51.972;21.204;2022-10-16T16:42:58;10.30;;;6.00;;
50745;SDS011;36711;51.972;21.204;2022-10-16T16:45:27;11.40;;;6.30;;